Time;durP1;ratioP1;P1;durP2;ratioP2;P2;SDS_P1;SDS_P2;PMS_P1;PMS_P2;Temp;Humidity;BMP_temperature;BMP_pressure;BME280_temperature;BME280_humidity;BME280_pressure;Samples;Min_cycle;Max_cycle;Signal;HPM_P1;HPM_P2
2021/05/15 00:01:45;;;;;;;;;;;15.40;90.00;;;;;;5073044;28;19908;-68
2021/05/15 00:04:12;;;;;;;;;;;15.30;90.50;;;;;;5073226;28;19912;-69
2021/05/15 00:06:39;;;;;;;;;;;15.30;91.10;;;;;;5071885;28;19913;-67
2021/05/15 00:09:06;;;;;;;;;;;15.40;89.90;;;;;;5072928;28;19909;-68
2021/05/15 00:11:32;;;;;;;;;;;15.50;89.40;;;;;;5073251;28;19913;-67
2021/05/15 00:13:59;;;;;;;;;;;15.50;89.00;;;;;;5072988;28;19908;-67
2021/05/15 00:16:26;;;;;;;;;;;15.60;88.90;;;;;;5073253;28;20385;-70
2021/05/15 00:18:52;;;;;;;;;;;15.70;89.50;;;;;;5072980;28;19909;-71
2021/05/15 00:21:19;;;;;;;;;;;15.60;88.80;;;;;;5074622;28;20087;-69
2021/05/15 00:23:46;;;;;;;;;;;15.60;87.60;;;;;;5081567;28;19983;-70
2021/05/15 00:26:14;;;;;;;;;;;15.80;88.10;;;;;;5072447;28;19954;-70
2021/05/15 00:28:42;;;;;;;;;;;15.90;88.50;;;;;;5074085;28;19908;-70
2021/05/15 00:31:09;;;;;;;;;;;15.80;86.90;;;;;;5076336;28;20015;-71
2021/05/15 00:33:36;;;;;;;;;;;16.00;87.20;;;;;;5076270;28;19916;-69
2021/05/15 00:36:03;;;;;;;;;;;16.00;87.80;;;;;;5076411;28;20354;-69
2021/05/15 00:38:29;;;;;;;;;;;16.10;87.20;;;;;;5076309;28;19909;-68
2021/05/15 00:40:56;;;;;;;;;;;16.20;84.90;;;;;;5076149;28;19908;-70
2021/05/15 00:43:24;;;;;;;;;;;16.20;86.40;;;;;;5073979;28;20015;-69
2021/05/15 00:45:51;;;;;;;;;;;16.20;85.10;;;;;;5076422;28;20275;-69
2021/05/15 00:48:17;;;;;;;;;;;16.20;85.30;;;;;;5076644;28;19912;-70
2021/05/15 00:50:44;;;;;;;;;;;16.20;84.30;;;;;;5076839;28;20386;-69
2021/05/15 00:53:10;;;;;;;;;;;16.10;84.30;;;;;;5076552;28;19961;-70
2021/05/15 00:55:37;;;;;;;;;;;15.90;82.90;;;;;;5076164;28;19909;-69
2021/05/15 00:58:04;;;;;;;;;;;15.90;83.90;;;;;;5076034;27;19912;-70
2021/05/15 01:00:31;;;;;;;;;;;16.00;83.50;;;;;;5075874;28;19908;-70
2021/05/15 01:02:58;;;;;;;;;;;16.20;82.80;;;;;;5076200;28;19912;-70
2021/05/15 01:05:25;;;;;;;;;;;16.30;83.80;;;;;;5075774;28;19923;-70
2021/05/15 01:07:51;;;;;;;;;;;16.60;82.00;;;;;;5075975;28;19934;-68
2021/05/15 01:10:18;;;;;;;;;;;16.90;80.40;;;;;;5075911;28;19909;-70
2021/05/15 01:13:12;;;;;;;;;;;18.00;78.80;;;;;;5075768;28;20007;-68
2021/05/15 01:15:38;;;;;;;;;;;17.90;76.00;;;;;;5075593;28;19908;-69
2021/05/15 01:18:05;;;;;;;;;;;17.80;80.10;;;;;;5075118;28;20333;-68
2021/05/15 01:20:32;;;;;;;;;;;18.20;77.50;;;;;;5075102;28;19934;-67
2021/05/15 01:22:59;;;;;;;;;;;18.10;76.40;;;;;;5074800;28;19909;-67
2021/05/15 01:25:26;;;;;;;;;;;17.80;77.80;;;;;;5075100;28;19916;-69
2021/05/15 01:27:53;;;;;;;;;;;17.50;78.70;;;;;;5075040;28;19912;-68
2021/05/15 01:30:21;;;;;;;;;;;17.20;78.10;;;;;;5075171;28;19953;-67
2021/05/15 01:32:47;;;;;;;;;;;17.00;79.10;;;;;;5074889;28;20363;-68
2021/05/15 01:35:18;;;;;;;;;;;16.90;80.40;;;;;;5074894;28;19957;-68
2021/05/15 01:37:44;;;;;;;;;;;16.80;80.70;;;;;;5073507;28;19999;-67
2021/05/15 01:40:11;;;;;;;;;;;16.70;78.40;;;;;;5073493;28;19915;-68
2021/05/15 01:42:38;;;;;;;;;;;16.60;78.50;;;;;;5074379;28;20010;-69
2021/05/15 01:45:05;;;;;;;;;;;16.60;79.20;;;;;;5074391;28;19920;-67
2021/05/15 01:47:36;;;;;;;;;;;16.70;80.60;;;;;;5074600;28;19908;-69
2021/05/15 01:50:04;;;;;;;;;;;16.80;79.90;;;;;;5074424;28;19908;-67
2021/05/15 01:52:30;;;;;;;;;;;16.70;80.50;;;;;;5074457;28;19962;-68
2021/05/15 01:54:57;;;;;;;;;;;16.70;80.80;;;;;;5074260;28;19915;-69
2021/05/15 01:57:24;;;;;;;;;;;16.70;81.10;;;;;;5074619;28;19920;-68
2021/05/15 01:59:51;;;;;;;;;;;16.60;80.30;;;;;;5107082;28;19909;-69
2021/05/15 02:02:17;;;;;;;;;;;16.50;79.20;;;;;;5074139;28;20355;-69
2021/05/15 02:04:44;;;;;;;;;;;16.40;79.70;;;;;;5073978;28;19920;-68
2021/05/15 02:07:10;;;;;;;;;;;16.30;80.30;;;;;;5074320;28;19912;-69
2021/05/15 02:09:37;;;;;;;;;;;16.40;81.10;;;;;;5074618;28;19919;-71
2021/05/15 02:12:04;;;;;;;;;;;16.30;82.40;;;;;;5074651;28;20374;-69
2021/05/15 02:14:30;;;;;;;;;;;16.30;82.40;;;;;;5107806;28;19908;-69
2021/05/15 02:16:57;;;;;;;;;;;16.40;81.70;;;;;;5075535;28;19909;-68
2021/05/15 02:19:24;;;;;;;;;;;16.40;82.60;;;;;;5076125;28;19912;-69
2021/05/15 02:21:50;;;;;;;;;;;16.40;81.60;;;;;;5073996;28;19990;-68
2021/05/15 02:24:17;;;;;;;;;;;16.50;80.60;;;;;;5106371;28;20268;-70
2021/05/15 02:26:44;;;;;;;;;;;16.40;79.90;;;;;;5073589;28;19920;-69
2021/05/15 02:29:10;;;;;;;;;;;16.40;81.70;;;;;;5073860;28;19952;-69
2021/05/15 02:31:37;;;;;;;;;;;16.40;81.80;;;;;;5073854;28;19912;-71
2021/05/15 02:34:03;;;;;;;;;;;16.40;81.10;;;;;;5073560;28;19916;-71
2021/05/15 02:36:31;;;;;;;;;;;16.50;79.80;;;;;;5073686;28;19917;-71
2021/05/15 02:39:00;;;;;;;;;;;16.60;79.80;;;;;;5073592;28;19912;-69
2021/05/15 02:41:26;;;;;;;;;;;16.60;79.70;;;;;;5073399;28;20315;-67
2021/05/15 02:43:53;;;;;;;;;;;16.80;80.30;;;;;;5073657;28;20035;-68
2021/05/15 02:46:19;;;;;;;;;;;16.80;78.60;;;;;;5073440;28;19927;-69
2021/05/15 02:48:46;;;;;;;;;;;16.80;78.30;;;;;;5073301;28;19909;-69
2021/05/15 02:51:13;;;;;;;;;;;16.50;82.40;;;;;;5072992;28;19915;-67
2021/05/15 02:53:39;;;;;;;;;;;16.20;85.50;;;;;;5073505;28;19912;-69
2021/05/15 02:56:06;;;;;;;;;;;15.80;89.50;;;;;;5073436;28;19947;-67
2021/05/15 02:58:33;;;;;;;;;;;15.40;90.50;;;;;;5073290;28;20312;-71
2021/05/15 03:00:59;;;;;;;;;;;15.00;90.30;;;;;;5072662;28;20014;-68
2021/05/15 03:03:26;;;;;;;;;;;14.90;88.60;;;;;;5073098;28;19916;-69
2021/05/15 03:05:53;;;;;;;;;;;14.90;88.00;;;;;;5073091;28;19917;-71
2021/05/15 03:08:19;;;;;;;;;;;15.00;85.50;;;;;;5073125;28;19947;-70
2021/05/15 03:10:46;;;;;;;;;;;15.00;87.70;;;;;;5072630;28;19916;-69
2021/05/15 03:13:13;;;;;;;;;;;15.00;84.20;;;;;;5073011;28;20356;-70
2021/05/15 03:15:39;;;;;;;;;;;15.00;85.50;;;;;;5072740;28;19957;-70
2021/05/15 03:18:06;;;;;;;;;;;15.00;85.60;;;;;;5073064;28;19915;-68
2021/05/15 03:20:33;;;;;;;;;;;15.00;86.50;;;;;;5073046;28;19908;-69
2021/05/15 03:23:00;;;;;;;;;;;15.10;90.20;;;;;;5072638;28;19908;-69
2021/05/15 03:25:27;;;;;;;;;;;15.10;89.80;;;;;;5072778;28;19916;-71
2021/05/15 03:27:53;;;;;;;;;;;15.10;88.80;;;;;;5072666;28;19913;-71
2021/05/15 03:30:20;;;;;;;;;;;15.00;85.00;;;;;;5105237;28;19966;-70
2021/05/15 03:32:47;;;;;;;;;;;15.00;86.10;;;;;;5095716;28;19960;-71
2021/05/15 03:35:15;;;;;;;;;;;15.10;84.00;;;;;;5113811;28;19908;-71
2021/05/15 03:37:42;;;;;;;;;;;15.10;83.10;;;;;;5113996;28;19908;-70
2021/05/15 03:40:12;;;;;;;;;;;15.30;82.60;;;;;;5114312;28;20263;-70
2021/05/15 03:42:38;;;;;;;;;;;15.40;82.30;;;;;;5114030;28;19920;-69
2021/05/15 03:45:06;;;;;;;;;;;15.60;80.90;;;;;;5115090;28;20346;-72
2021/05/15 03:47:32;;;;;;;;;;;15.50;78.70;;;;;;5117929;28;20366;-71
2021/05/15 03:49:59;;;;;;;;;;;15.50;80.40;;;;;;5115194;28;20346;-71
2021/05/15 03:52:26;;;;;;;;;;;15.50;80.00;;;;;;5113771;28;19908;-70
2021/05/15 03:54:52;;;;;;;;;;;15.60;79.80;;;;;;5113557;28;19908;-70
2021/05/15 03:57:19;;;;;;;;;;;15.60;79.30;;;;;;5113631;28;19908;-70
2021/05/15 03:59:46;;;;;;;;;;;15.50;77.80;;;;;;5113737;28;19908;-70
2021/05/15 04:02:12;;;;;;;;;;;15.50;75.70;;;;;;5113347;28;20010;-70
2021/05/15 04:04:39;;;;;;;;;;;15.50;75.20;;;;;;5111800;28;19959;-70
2021/05/15 04:07:06;;;;;;;;;;;15.60;75.00;;;;;;5113329;28;19914;-70
2021/05/15 04:09:32;;;;;;;;;;;15.50;73.70;;;;;;5111493;28;19915;-70
2021/05/15 04:11:59;;;;;;;;;;;15.50;73.00;;;;;;5092839;28;19912;-68
2021/05/15 04:14:39;;;;;;;;;;;15.50;73.90;;;;;;5092058;28;20240;-68
2021/05/15 04:19:33;;;;;;;;;;;15.60;75.10;;;;;;5093368;28;19908;-69
2021/05/15 04:22:00;;;;;;;;;;;15.60;74.60;;;;;;5093058;28;19908;-67
2021/05/15 04:24:27;;;;;;;;;;;15.60;74.80;;;;;;5092501;28;19920;-67
2021/05/15 04:26:54;;;;;;;;;;;15.60;74.40;;;;;;5092885;28;19923;-67
2021/05/15 04:29:21;;;;;;;;;;;15.70;75.00;;;;;;5092825;28;20278;-68
2021/05/15 04:31:49;;;;;;;;;;;15.70;73.90;;;;;;5092793;28;19908;-66
2021/05/15 04:34:16;;;;;;;;;;;15.70;74.70;;;;;;5092775;28;19926;-68
2021/05/15 04:36:43;;;;;;;;;;;15.70;77.10;;;;;;5093038;28;20366;-70
2021/05/15 04:39:10;;;;;;;;;;;15.70;73.80;;;;;;5092147;28;19912;-70
2021/05/15 04:41:36;;;;;;;;;;;15.70;73.60;;;;;;5090752;28;19998;-67
2021/05/15 04:44:03;;;;;;;;;;;15.70;72.60;;;;;;5092390;28;19956;-69
2021/05/15 04:46:30;;;;;;;;;;;15.70;73.20;;;;;;5092637;28;19970;-68
2021/05/15 04:48:57;;;;;;;;;;;15.70;72.70;;;;;;5092471;28;19908;-68
2021/05/15 04:51:23;;;;;;;;;;;15.60;74.70;;;;;;5092767;28;19915;-67
2021/05/15 04:53:50;;;;;;;;;;;15.80;74.20;;;;;;5092941;28;19911;-68
2021/05/15 04:56:17;;;;;;;;;;;15.70;72.40;;;;;;5092587;28;19915;-68
2021/05/15 04:58:43;;;;;;;;;;;15.70;75.10;;;;;;5092481;28;19908;-69
2021/05/15 05:01:10;;;;;;;;;;;15.80;73.80;;;;;;5089971;28;19908;-69
2021/05/15 05:03:37;;;;;;;;;;;15.80;72.30;;;;;;5080472;28;19961;-70
2021/05/15 05:06:03;;;;;;;;;;;15.70;74.00;;;;;;5069579;28;20094;-69
2021/05/15 05:08:30;;;;;;;;;;;15.60;73.40;;;;;;5069569;28;20016;-69
2021/05/15 05:10:57;;;;;;;;;;;15.60;74.20;;;;;;5101918;28;19962;-72
2021/05/15 05:13:24;;;;;;;;;;;15.60;72.50;;;;;;5070206;28;20094;-70
2021/05/15 05:15:50;;;;;;;;;;;15.70;71.70;;;;;;5100289;28;20366;-70
2021/05/15 05:18:17;;;;;;;;;;;15.70;73.30;;;;;;5117048;28;19908;-69
2021/05/15 05:20:44;;;;;;;;;;;15.60;72.40;;;;;;5116301;28;19914;-69
2021/05/15 05:23:10;;;;;;;;;;;15.60;71.10;;;;;;5103789;28;19908;-70
2021/05/15 05:25:37;;;;;;;;;;;15.50;70.10;;;;;;5094019;28;19962;-67
2021/05/15 05:28:04;;;;;;;;;;;15.40;69.70;;;;;;5093963;28;19936;-69
2021/05/15 05:30:32;;;;;;;;;;;15.40;70.70;;;;;;5092509;28;19908;-69
2021/05/15 05:32:59;;;;;;;;;;;15.30;70.10;;;;;;5093692;28;19995;-69
2021/05/15 05:35:27;;;;;;;;;;;15.30;71.30;;;;;;5093900;28;19908;-69
2021/05/15 05:37:53;;;;;;;;;;;15.20;70.40;;;;;;5094221;28;19908;-70
2021/05/15 05:40:20;;;;;;;;;;;15.10;71.30;;;;;;5093942;28;19952;-70
2021/05/15 05:42:47;;;;;;;;;;;15.10;71.50;;;;;;5095380;28;20350;-70
2021/05/15 05:45:15;;;;;;;;;;;15.10;71.00;;;;;;5095396;28;20290;-70
2021/05/15 05:47:42;;;;;;;;;;;15.10;71.70;;;;;;5095469;28;19944;-70
2021/05/15 05:50:09;;;;;;;;;;;15.10;70.50;;;;;;5095564;28;19908;-70
2021/05/15 05:52:36;;;;;;;;;;;15.00;70.90;;;;;;5095542;28;20047;-69
2021/05/15 05:55:04;;;;;;;;;;;15.00;70.00;;;;;;5095423;28;19908;-70
2021/05/15 05:57:30;;;;;;;;;;;15.00;70.30;;;;;;5095511;28;19915;-70
2021/05/15 05:59:57;;;;;;;;;;;15.00;71.30;;;;;;5095347;28;19930;-70
2021/05/15 06:02:24;;;;;;;;;;;15.00;71.70;;;;;;5095427;28;20380;-68
2021/05/15 06:04:50;;;;;;;;;;;14.90;72.00;;;;;;5095425;28;19956;-70
2021/05/15 06:07:17;;;;;;;;;;;14.90;71.00;;;;;;5095395;28;20321;-70
2021/05/15 06:09:44;;;;;;;;;;;14.90;72.30;;;;;;5095206;28;19999;-70
2021/05/15 06:12:11;;;;;;;;;;;14.90;72.40;;;;;;5095238;28;20347;-70
2021/05/15 06:14:39;;;;;;;;;;;14.90;73.00;;;;;;5094998;28;19916;-70
2021/05/15 06:17:06;;;;;;;;;;;14.90;72.10;;;;;;5094762;28;19961;-69
2021/05/15 06:19:33;;;;;;;;;;;14.80;70.70;;;;;;5095016;28;19931;-69
2021/05/15 06:21:59;;;;;;;;;;;14.80;71.10;;;;;;5094710;28;19908;-71
2021/05/15 06:24:29;;;;;;;;;;;14.80;72.80;;;;;;5094731;28;19916;-68
2021/05/15 06:26:56;;;;;;;;;;;14.80;72.20;;;;;;5094099;28;19915;-68
2021/05/15 06:29:22;;;;;;;;;;;14.70;71.80;;;;;;5094872;28;19908;-69
2021/05/15 06:31:49;;;;;;;;;;;14.70;72.00;;;;;;5094812;28;19943;-70
2021/05/15 06:34:15;;;;;;;;;;;14.60;72.40;;;;;;5094611;28;19909;-70
2021/05/15 06:36:42;;;;;;;;;;;14.60;73.80;;;;;;5095080;28;20355;-68
2021/05/15 06:39:09;;;;;;;;;;;14.50;72.70;;;;;;5094836;28;19908;-69
2021/05/15 06:41:35;;;;;;;;;;;14.50;73.30;;;;;;5094980;28;19924;-68
2021/05/15 06:44:02;;;;;;;;;;;14.50;73.30;;;;;;5106981;28;19920;-69
2021/05/15 06:46:29;;;;;;;;;;;14.40;76.00;;;;;;5107497;28;19908;-67
2021/05/15 06:48:55;;;;;;;;;;;14.40;73.10;;;;;;5105831;28;20377;-69
2021/05/15 06:51:22;;;;;;;;;;;14.40;74.00;;;;;;5094575;28;19909;-68
2021/05/15 06:53:49;;;;;;;;;;;14.30;73.50;;;;;;5094665;28;19951;-70
2021/05/15 06:56:15;;;;;;;;;;;14.30;74.40;;;;;;5094538;28;20351;-69
2021/05/15 06:58:44;;;;;;;;;;;14.30;74.60;;;;;;5094509;28;19919;-68
2021/05/15 07:01:13;;;;;;;;;;;14.20;75.70;;;;;;5093886;28;19909;-69
2021/05/15 07:03:39;;;;;;;;;;;14.20;75.10;;;;;;5094251;28;20248;-71
2021/05/15 07:06:06;;;;;;;;;;;14.20;76.10;;;;;;5094433;28;20371;-68
2021/05/15 07:08:36;;;;;;;;;;;14.20;75.40;;;;;;5094767;28;20399;-68
2021/05/15 07:11:03;;;;;;;;;;;14.20;75.70;;;;;;5075827;28;19916;-69
2021/05/15 07:13:29;;;;;;;;;;;14.20;76.30;;;;;;5093955;28;19908;-69
2021/05/15 07:15:56;;;;;;;;;;;14.10;76.40;;;;;;5093366;28;19927;-70
2021/05/15 07:18:23;;;;;;;;;;;14.10;75.90;;;;;;5094126;28;19922;-70
2021/05/15 07:20:50;;;;;;;;;;;14.10;76.00;;;;;;5094021;28;20008;-70
2021/05/15 07:23:17;;;;;;;;;;;14.10;76.80;;;;;;5074434;28;19913;-69
2021/05/15 07:25:44;;;;;;;;;;;14.10;76.40;;;;;;5091872;28;20315;-71
2021/05/15 07:28:10;;;;;;;;;;;14.00;77.90;;;;;;5093914;28;19953;-68
2021/05/15 07:30:37;;;;;;;;;;;14.00;75.60;;;;;;5093456;28;19915;-70
2021/05/15 07:33:04;;;;;;;;;;;14.00;75.30;;;;;;5093623;28;20271;-68
2021/05/15 07:35:30;;;;;;;;;;;14.00;75.30;;;;;;5093812;28;19908;-69
2021/05/15 07:37:58;;;;;;;;;;;14.00;75.20;;;;;;5092769;28;20422;-70
2021/05/15 07:40:25;;;;;;;;;;;14.00;77.00;;;;;;5093494;28;20002;-69
2021/05/15 07:42:52;;;;;;;;;;;14.00;76.10;;;;;;5093262;28;19927;-69
2021/05/15 07:45:18;;;;;;;;;;;14.00;75.80;;;;;;5093479;28;19969;-70
2021/05/15 07:47:45;;;;;;;;;;;14.00;75.70;;;;;;5091901;28;19919;-70
2021/05/15 07:50:12;;;;;;;;;;;13.90;75.30;;;;;;5093593;28;20030;-70
2021/05/15 07:52:38;;;;;;;;;;;13.80;75.70;;;;;;5093280;28;19908;-69
2021/05/15 07:55:09;;;;;;;;;;;13.80;75.40;;;;;;5093459;28;19915;-71
2021/05/15 07:57:36;;;;;;;;;;;13.90;74.30;;;;;;5093456;28;20141;-70
2021/05/15 08:00:04;;;;;;;;;;;13.80;74.20;;;;;;5093329;28;20374;-70
2021/05/15 08:02:32;;;;;;;;;;;13.80;73.50;;;;;;5093302;28;19923;-69
2021/05/15 08:04:59;;;;;;;;;;;13.80;73.40;;;;;;5092766;28;20358;-69
2021/05/15 08:07:25;;;;;;;;;;;13.80;73.90;;;;;;5093504;28;19907;-70
2021/05/15 08:09:52;;;;;;;;;;;13.80;75.30;;;;;;5093421;28;19986;-70
2021/05/15 08:12:18;;;;;;;;;;;13.70;74.80;;;;;;5094816;28;19912;-70
2021/05/15 08:14:45;;;;;;;;;;;13.70;73.90;;;;;;5103191;28;19919;-70
2021/05/15 08:17:13;;;;;;;;;;;13.80;75.00;;;;;;5106659;28;19919;-67
2021/05/15 08:19:40;;;;;;;;;;;13.80;74.00;;;;;;5105253;28;19994;-70
2021/05/15 08:22:06;;;;;;;;;;;13.70;74.60;;;;;;5109062;28;19908;-68
2021/05/15 08:24:33;;;;;;;;;;;13.70;73.80;;;;;;5095580;28;20011;-70
2021/05/15 08:27:00;;;;;;;;;;;13.70;74.30;;;;;;5094021;28;19962;-68
2021/05/15 08:29:28;;;;;;;;;;;13.70;73.80;;;;;;5094045;28;20362;-70
2021/05/15 08:31:55;;;;;;;;;;;13.80;74.40;;;;;;5093662;28;19924;-70
2021/05/15 08:34:22;;;;;;;;;;;13.80;76.50;;;;;;5093447;28;19962;-68
2021/05/15 08:36:49;;;;;;;;;;;13.70;75.50;;;;;;5092442;28;19940;-69
2021/05/15 08:39:15;;;;;;;;;;;13.70;75.30;;;;;;5093487;28;19908;-70
2021/05/15 08:41:42;;;;;;;;;;;13.70;76.00;;;;;;5093272;28;19951;-70
2021/05/15 08:44:11;;;;;;;;;;;13.60;75.40;;;;;;5093356;28;19916;-69
2021/05/15 08:46:41;;;;;;;;;;;13.60;76.20;;;;;;5093136;28;19908;-68
2021/05/15 08:49:08;;;;;;;;;;;13.50;76.30;;;;;;5093810;28;19999;-68
2021/05/15 08:51:35;;;;;;;;;;;13.50;75.90;;;;;;5097178;28;19954;-67
2021/05/15 08:54:01;;;;;;;;;;;13.50;77.80;;;;;;5097578;28;20255;-69
2021/05/15 08:56:29;;;;;;;;;;;13.40;76.00;;;;;;5097901;28;19908;-69
2021/05/15 08:58:57;;;;;;;;;;;13.50;76.20;;;;;;5098118;28;20341;-70
2021/05/15 09:01:25;;;;;;;;;;;13.40;78.20;;;;;;5100024;28;20315;-70
2021/05/15 09:03:54;;;;;;;;;;;13.40;76.60;;;;;;5101799;28;20020;-69
2021/05/15 09:06:20;;;;;;;;;;;13.40;78.70;;;;;;5109326;28;19908;-69
2021/05/15 09:08:48;;;;;;;;;;;13.30;76.90;;;;;;5109677;28;19908;-70
2021/05/15 09:11:15;;;;;;;;;;;13.30;76.40;;;;;;5109572;28;19908;-70
2021/05/15 09:13:56;;;;;;;;;;;13.30;77.50;;;;;;5111009;28;19908;-69
2021/05/15 09:16:23;;;;;;;;;;;13.40;78.20;;;;;;5109243;28;19919;-68
2021/05/15 09:18:49;;;;;;;;;;;13.30;76.20;;;;;;5100269;28;20043;-69
2021/05/15 09:21:17;;;;;;;;;;;13.30;78.20;;;;;;5096437;28;20010;-70
2021/05/15 09:23:46;;;;;;;;;;;13.30;77.50;;;;;;5096311;28;20378;-70
2021/05/15 09:26:19;;;;;;;;;;;13.20;77.20;;;;;;5096260;28;19916;-69
2021/05/15 09:28:47;;;;;;;;;;;13.20;78.00;;;;;;5095876;28;19962;-70
2021/05/15 09:31:21;;;;;;;;;;;13.20;77.70;;;;;;5096225;28;20021;-70
2021/05/15 09:33:50;;;;;;;;;;;13.10;78.30;;;;;;5096153;28;19915;-68
2021/05/15 09:36:18;;;;;;;;;;;13.10;78.70;;;;;;5096115;28;19908;-70
2021/05/15 09:38:45;;;;;;;;;;;13.20;79.10;;;;;;5095611;28;19940;-69
2021/05/15 09:41:13;;;;;;;;;;;13.10;79.20;;;;;;5096235;28;20003;-70
2021/05/15 09:43:39;;;;;;;;;;;13.10;79.70;;;;;;5095625;28;19920;-69
2021/05/15 09:46:07;;;;;;;;;;;13.20;79.80;;;;;;5095862;28;19916;-68
2021/05/15 09:48:37;;;;;;;;;;;13.10;78.40;;;;;;5099621;28;19908;-69
2021/05/15 09:51:14;;;;;;;;;;;13.00;77.70;;;;;;5108270;28;19912;-68
2021/05/15 09:53:40;;;;;;;;;;;12.90;78.10;;;;;;5068467;28;19909;-70
2021/05/15 09:56:07;;;;;;;;;;;12.90;78.10;;;;;;5062631;28;19909;-68
2021/05/15 09:58:34;;;;;;;;;;;12.90;79.60;;;;;;5055306;28;19989;-71
2021/05/15 10:01:00;;;;;;;;;;;12.90;78.20;;;;;;5058940;28;19935;-71
2021/05/15 10:03:32;;;;;;;;;;;12.80;79.40;;;;;;5055198;28;20391;-68
2021/05/15 10:06:15;;;;;;;;;;;12.90;78.60;;;;;;5054977;28;19923;-70
2021/05/15 10:08:44;;;;;;;;;;;12.80;78.80;;;;;;5055122;28;19909;-70
2021/05/15 10:11:11;;;;;;;;;;;12.80;78.30;;;;;;5055215;28;19952;-68
2021/05/15 10:13:40;;;;;;;;;;;12.70;78.40;;;;;;5054387;28;20298;-68
2021/05/15 10:16:07;;;;;;;;;;;12.70;78.50;;;;;;5055096;28;20362;-69
2021/05/15 10:18:34;;;;;;;;;;;12.70;78.60;;;;;;5054995;28;19915;-69
2021/05/15 10:21:02;;;;;;;;;;;12.70;79.20;;;;;;5054734;28;19962;-69
2021/05/15 10:23:29;;;;;;;;;;;12.60;78.80;;;;;;5054708;28;19909;-70
2021/05/15 10:26:17;;;;;;;;;;;12.60;79.00;;;;;;5054346;28;19916;-70
2021/05/15 10:28:45;;;;;;;;;;;12.60;78.90;;;;;;5053956;28;20363;-69
2021/05/15 10:31:16;;;;;;;;;;;12.70;79.90;;;;;;5054447;28;19959;-69
2021/05/15 10:33:46;;;;;;;;;;;12.60;79.40;;;;;;5065340;28;19909;-68
2021/05/15 10:36:23;;;;;;;;;;;12.60;79.00;;;;;;5074093;28;19913;-68
2021/05/15 10:38:51;;;;;;;;;;;12.60;79.50;;;;;;5070438;28;19918;-69
2021/05/15 10:41:27;;;;;;;;;;;12.60;78.90;;;;;;5074403;28;19916;-69
2021/05/15 10:43:56;;;;;;;;;;;12.60;79.00;;;;;;5093348;28;19920;-69
2021/05/15 10:46:31;;;;;;;;;;;12.60;79.10;;;;;;5090063;28;19920;-70
2021/05/15 10:49:01;;;;;;;;;;;12.50;79.20;;;;;;5092584;28;19920;-69
2021/05/15 10:51:31;;;;;;;;;;;12.50;79.50;;;;;;5094369;28;20286;-70
2021/05/15 10:53:58;;;;;;;;;;;12.50;79.30;;;;;;5094491;28;20011;-67
2021/05/15 10:56:30;;;;;;;;;;;12.40;79.10;;;;;;5093481;28;20263;-69
2021/05/15 10:59:04;;;;;;;;;;;12.40;79.80;;;;;;5090392;28;19912;-70
2021/05/15 11:01:51;;;;;;;;;;;12.50;79.70;;;;;;5087151;28;19912;-70
2021/05/15 11:04:31;;;;;;;;;;;12.40;79.70;;;;;;5078773;28;19912;-68
2021/05/15 11:06:58;;;;;;;;;;;12.40;80.20;;;;;;5090307;28;20212;-70
2021/05/15 11:09:27;;;;;;;;;;;12.30;81.60;;;;;;5087560;28;19924;-68
2021/05/15 11:12:03;;;;;;;;;;;12.30;80.70;;;;;;5075539;28;19912;-69
2021/05/15 11:14:29;;;;;;;;;;;12.30;80.30;;;;;;5089241;28;19961;-71
2021/05/15 11:17:06;;;;;;;;;;;12.30;80.30;;;;;;5089408;28;19919;-69
2021/05/15 11:19:33;;;;;;;;;;;12.20;80.40;;;;;;5091403;28;19982;-69
2021/05/15 11:22:03;;;;;;;;;;;12.20;81.10;;;;;;5091599;28;19969;-69
2021/05/15 11:24:30;;;;;;;;;;;12.20;81.50;;;;;;5099604;28;20007;-69
2021/05/15 11:27:08;;;;;;;;;;;12.20;81.30;;;;;;5105050;28;19915;-70
2021/05/15 11:29:35;;;;;;;;;;;12.20;81.10;;;;;;5106621;28;19960;-68
2021/05/15 11:32:09;;;;;;;;;;;12.20;81.20;;;;;;5091699;28;19950;-69
2021/05/15 11:34:37;;;;;;;;;;;12.20;81.90;;;;;;5091083;28;19908;-69
2021/05/15 11:37:04;;;;;;;;;;;12.20;82.10;;;;;;5090357;28;20429;-69
2021/05/15 11:39:34;;;;;;;;;;;12.20;80.70;;;;;;5090911;28;20222;-69
2021/05/15 11:42:05;;;;;;;;;;;12.10;81.70;;;;;;5088517;28;19924;-70
2021/05/15 11:44:31;;;;;;;;;;;12.10;82.00;;;;;;5090865;28;19966;-69
2021/05/15 11:47:02;;;;;;;;;;;12.00;82.60;;;;;;5090899;28;19916;-69
2021/05/15 11:49:29;;;;;;;;;;;12.00;82.30;;;;;;5090629;28;20003;-69
2021/05/15 11:52:02;;;;;;;;;;;12.10;82.40;;;;;;5090832;28;19911;-70
2021/05/15 11:54:32;;;;;;;;;;;12.00;83.00;;;;;;5090825;28;19926;-70
2021/05/15 11:57:01;;;;;;;;;;;12.00;84.00;;;;;;5090577;28;20028;-69
2021/05/15 11:59:28;;;;;;;;;;;12.00;83.90;;;;;;5090615;28;20373;-69
2021/05/15 12:01:56;;;;;;;;;;;11.90;84.10;;;;;;5090517;28;19912;-70
2021/05/15 12:04:32;;;;;;;;;;;11.90;84.10;;;;;;5090822;28;20345;-69
2021/05/15 12:07:00;;;;;;;;;;;12.00;85.00;;;;;;5090413;28;19916;-69
2021/05/15 12:09:30;;;;;;;;;;;11.90;83.60;;;;;;5090713;28;19912;-69
2021/05/15 12:12:05;;;;;;;;;;;11.90;84.20;;;;;;5090646;28;19916;-69
2021/05/15 12:14:37;;;;;;;;;;;11.90;84.10;;;;;;5090201;28;20037;-69
2021/05/15 12:17:04;;;;;;;;;;;11.90;84.40;;;;;;5090292;28;20314;-69
2021/05/15 12:19:31;;;;;;;;;;;11.90;85.20;;;;;;5090366;28;19908;-69
2021/05/15 12:22:02;;;;;;;;;;;11.80;85.50;;;;;;5090646;28;19920;-68
2021/05/15 12:24:58;;;;;;;;;;;11.90;84.80;;;;;;5091929;28;19924;-68
2021/05/15 12:27:31;;;;;;;;;;;11.90;84.90;;;;;;5089754;28;20366;-68
2021/05/15 12:29:58;;;;;;;;;;;11.80;84.40;;;;;;5094814;28;20030;-69
2021/05/15 12:32:46;;;;;;;;;;;11.90;84.80;;;;;;5094551;28;19912;-68
2021/05/15 12:35:15;;;;;;;;;;;11.90;84.20;;;;;;5094583;28;19946;-69
2021/05/15 12:37:42;;;;;;;;;;;11.80;84.70;;;;;;5094354;28;20029;-68
2021/05/15 12:40:10;;;;;;;;;;;11.70;84.60;;;;;;5094224;28;19912;-68
2021/05/15 12:42:37;;;;;;;;;;;11.70;85.50;;;;;;5093515;28;19916;-69
2021/05/15 12:45:08;;;;;;;;;;;11.70;84.90;;;;;;5094155;28;20006;-69
2021/05/15 12:47:36;;;;;;;;;;;11.70;84.80;;;;;;5094309;28;19951;-67
2021/05/15 12:50:14;;;;;;;;;;;11.70;84.70;;;;;;5094328;28;20282;-68
2021/05/15 12:52:41;;;;;;;;;;;11.70;84.60;;;;;;5094216;28;19916;-68
2021/05/15 12:55:09;;;;;;;;;;;11.60;84.90;;;;;;5093866;28;19909;-67
2021/05/15 12:57:35;;;;;;;;;;;11.60;84.80;;;;;;5095836;28;19922;-68
2021/05/15 13:00:02;;;;;;;;;;;11.50;84.60;;;;;;5103353;28;19908;-68
2021/05/15 13:02:29;;;;;;;;;;;11.60;85.00;;;;;;5103588;28;19912;-69
2021/05/15 13:04:55;;;;;;;;;;;11.50;85.10;;;;;;5102786;28;19924;-69
2021/05/15 13:07:25;;;;;;;;;;;11.60;85.90;;;;;;5093764;28;19908;-69
2021/05/15 13:09:54;;;;;;;;;;;11.50;86.30;;;;;;5094133;28;20004;-68
2021/05/15 13:12:21;;;;;;;;;;;11.50;86.60;;;;;;5093868;28;20354;-68
2021/05/15 13:14:48;;;;;;;;;;;11.50;88.40;;;;;;5126097;27;19912;-68
2021/05/15 13:17:14;;;;;;;;;;;11.50;86.40;;;;;;5093620;28;20010;-68
2021/05/15 13:19:41;;;;;;;;;;;11.40;86.50;;;;;;5093579;28;19915;-68
2021/05/15 13:22:11;;;;;;;;;;;11.40;86.50;;;;;;5093516;28;19970;-68
2021/05/15 13:24:39;;;;;;;;;;;11.40;87.30;;;;;;5101554;28;19965;-68
2021/05/15 13:27:09;;;;;;;;;;;11.40;86.70;;;;;;5113881;28;19908;-68
2021/05/15 13:29:35;;;;;;;;;;;11.40;86.90;;;;;;5114247;28;20409;-67
2021/05/15 13:32:02;;;;;;;;;;;11.40;86.80;;;;;;5114592;28;20281;-67
2021/05/15 13:34:29;;;;;;;;;;;11.30;87.00;;;;;;5113899;28;19947;-67
2021/05/15 13:36:56;;;;;;;;;;;11.30;86.40;;;;;;5114105;28;19907;-67
2021/05/15 13:39:22;;;;;;;;;;;11.30;87.50;;;;;;5114572;28;20389;-69
2021/05/15 13:41:50;;;;;;;;;;;11.30;87.90;;;;;;5114341;28;20319;-68
2021/05/15 13:44:16;;;;;;;;;;;11.30;87.60;;;;;;5112920;28;19923;-68
2021/05/15 13:46:46;;;;;;;;;;;11.30;87.10;;;;;;5113538;28;19920;-67
2021/05/15 13:49:12;;;;;;;;;;;11.30;87.20;;;;;;5114143;28;19918;-67
2021/05/15 13:51:39;;;;;;;;;;;11.30;87.20;;;;;;5114170;28;19908;-68
2021/05/15 13:54:11;;;;;;;;;;;11.20;87.60;;;;;;5114191;28;20006;-68
2021/05/15 13:56:38;;;;;;;;;;;11.20;87.40;;;;;;5114127;28;19912;-68
2021/05/15 13:59:05;;;;;;;;;;;11.20;87.30;;;;;;5113309;28;19980;-69
2021/05/15 14:01:31;;;;;;;;;;;11.20;87.90;;;;;;5113952;28;19930;-67
2021/05/15 14:03:58;;;;;;;;;;;11.20;87.90;;;;;;5114047;28;19912;-68
2021/05/15 14:06:26;;;;;;;;;;;11.10;87.60;;;;;;5113836;28;19924;-68
2021/05/15 14:08:54;;;;;;;;;;;11.10;87.90;;;;;;5113614;28;20278;-68
2021/05/15 14:11:25;;;;;;;;;;;11.10;87.60;;;;;;5113826;28;19963;-68
2021/05/15 14:13:52;;;;;;;;;;;11.10;87.60;;;;;;5113217;28;20615;-67
2021/05/15 14:16:19;;;;;;;;;;;11.00;87.80;;;;;;5113585;28;19950;-68
2021/05/15 14:18:48;;;;;;;;;;;11.10;88.20;;;;;;5113534;28;20015;-67
2021/05/15 14:21:16;;;;;;;;;;;11.10;86.90;;;;;;5113423;28;20377;-68
2021/05/15 14:23:43;;;;;;;;;;;11.10;88.60;;;;;;5112056;28;19911;-67